Map

Track Data

SID SEASON NUMBER BASIN SUBBASIN NAME ISO_TIME NATURE LAT LON WMO_WIND WMO_PRES WMO_AGENCY TRACK_TYPE DIST2LAND LANDFALL IFLAG USA_AGENCY USA_ATCF_ID USA_LAT USA_LON USA_RECORD USA_STATUS USA_WIND USA_PRES USA_SSHS USA_R34_NE USA_R34_SE USA_R34_SW USA_R34_NW USA_R50_NE USA_R50_SE USA_R50_SW USA_R50_NW USA_R64_NE USA_R64_SE USA_R64_SW USA_R64_NW USA_POCI USA_ROCI USA_RMW USA_EYE TOKYO_LAT TOKYO_LON TOKYO_GRADE TOKYO_WIND TOKYO_PRES TOKYO_R50_DIR TOKYO_R50_LONG TOKYO_R50_SHORT TOKYO_R30_DIR TOKYO_R30_LONG TOKYO_R30_SHORT TOKYO_LAND CMA_LAT CMA_LON CMA_CAT CMA_WIND CMA_PRES HKO_LAT HKO_LON HKO_CAT HKO_WIND HKO_PRES NEWDELHI_LAT NEWDELHI_LON NEWDELHI_GRADE NEWDELHI_WIND NEWDELHI_PRES NEWDELHI_CI NEWDELHI_DP NEWDELHI_POCI REUNION_LAT REUNION_LON REUNION_TYPE REUNION_WIND REUNION_PRES REUNION_TNUM REUNION_CI REUNION_RMW REUNION_R34_NE REUNION_R34_SE REUNION_R34_SW REUNION_R34_NW REUNION_R50_NE REUNION_R50_SE REUNION_R50_SW REUNION_R50_NW REUNION_R64_NE REUNION_R64_SE REUNION_R64_SW REUNION_R64_NW BOM_LAT BOM_LON BOM_TYPE BOM_WIND BOM_PRES BOM_TNUM BOM_CI BOM_RMW BOM_R34_NE BOM_R34_SE BOM_R34_SW BOM_R34_NW BOM_R50_NE BOM_R50_SE BOM_R50_SW BOM_R50_NW BOM_R64_NE BOM_R64_SE BOM_R64_SW BOM_R64_NW BOM_ROCI BOM_POCI BOM_EYE BOM_POS_METHOD BOM_PRES_METHOD NADI_LAT NADI_LON NADI_CAT NADI_WIND NADI_PRES WELLINGTON_LAT WELLINGTON_LON WELLINGTON_WIND WELLINGTON_PRES DS824_LAT DS824_LON DS824_STAGE DS824_WIND DS824_PRES TD9636_LAT TD9636_LON TD9636_STAGE TD9636_WIND TD9636_PRES TD9635_LAT TD9635_LON TD9635_WIND TD9635_PRES TD9635_ROCI NEUMANN_LAT NEUMANN_LON NEUMANN_CLASS NEUMANN_WIND NEUMANN_PRES MLC_LAT MLC_LON MLC_CLASS MLC_WIND MLC_PRES USA_GUST BOM_GUST BOM_GUST_PER REUNION_GUST REUNION_GUST_PER USA_SEAHGT USA_SEARAD_NE USA_SEARAD_SE USA_SEARAD_SW USA_SEARAD_NW STORM_SPEED STORM_DIR
1988352S14166 1989 111 SP MM ESETA 1988-12-17 00:00:00 TS -14.3000 166.300 30 997 wellington main 55 54 ________O___O_ -1 -14.3000 166.300 30 997 -14.3000 166.300 TC 20 4 223
1988352S14166 1989 111 SP MM ESETA 1988-12-17 03:00:00 TS -14.4494 166.152 main 54 48 ________P___P_ -1 -14.4563 166.164 30 997 -14.4425 166.140 TC 20 4 221
1988352S14166 1989 111 SP MM ESETA 1988-12-17 06:00:00 TS -14.6100 166.016 main 58 54 ________P___O_ -1 -14.6201 166.033 30 997 -14.6000 166.000 TC 20 4 215
1988352S14166 1989 111 SP MM ESETA 1988-12-17 09:00:00 TS -14.7919 165.901 main 64 64 ________P___P_ -1 -14.7988 165.910 30 997 -14.7850 165.892 TC 20 4 208
1988352S14166 1989 111 SP MM ESETA 1988-12-17 12:00:00 TS -15.0000 165.800 30 997 wellington main 78 78 ________O___O_ -1 -15.0000 165.800 30 997 -15.0000 165.800 TC 20 5 204
1988352S14166 1989 111 SP MM ESETA 1988-12-17 15:00:00 TS -15.2355 165.700 main 96 96 ________P___P_ -1 -15.2284 165.707 30 997 -15.2425 165.693 TC 20 5 201
1988352S14166 1989 111 SP MM ESETA 1988-12-17 18:00:00 TS -15.4887 165.614 main 107 107 ________P___O_ -1 -15.4775 165.627 30 997 -15.5000 165.600 TC 20 5 196
1988352S14166 1989 111 SP MM ESETA 1988-12-17 21:00:00 TS -15.7439 165.551 main 112 112 ________P___P_ -1 -15.7378 165.560 30 997 -15.7500 165.542 TC 20 5 192
1988352S14166 1989 111 SP MM ESETA 1988-12-18 00:00:00 TS -16.0000 165.500 30 997 wellington main 135 135 ________O___O_ -1 -16.0000 165.500 30 997 -16.0000 165.500 TC 20 5 191
1988352S14166 1989 111 SP MM ESETA 1988-12-18 03:00:00 TS -16.2480 165.444 main 156 156 ________P___P_ -1 -16.2459 165.439 30 997 -16.2500 165.450 TC 20 5 192
1988352S14166 1989 111 SP MM ESETA 1988-12-18 06:00:00 TS -16.4962 165.392 main 174 174 ________P___O_ -1 -16.4925 165.385 30 997 -16.5000 165.400 TC 20 5 191
1988352S14166 1989 111 SP MM ESETA 1988-12-18 09:00:00 TS -16.7464 165.341 main 195 195 ________P___P_ -1 -16.7428 165.339 30 997 -16.7500 165.343 TC 22 5 190
1988352S14166 1989 111 SP MM ESETA 1988-12-18 12:00:00 TS -17.0000 165.300 30 997 wellington main 216 216 ________O___O_ -1 -17.0000 165.300 30 997 -17.0000 165.300 TC 25 5 185
1988352S14166 1989 111 SP MM ESETA 1988-12-18 15:00:00 TS -17.2415 165.303 main 227 227 ________P___P_ -1 -17.2404 165.307 30 997 -17.2425 165.300 TC 25 5 0
1988352S14166 1989 111 SP MM ESETA 1988-12-18 18:00:00 TS -17.4960 165.307 main 247 247 ________P___O_ -1 -17.4919 165.314 30 997 -17.5000 165.300 TC 25 5 182
1988352S14166 1989 111 SP MM ESETA 1988-12-18 21:00:00 TS -17.7750 165.285 main 266 256 ________P___P_ -1 -17.7725 165.290 30 997 -17.7775 165.280 TC 25 6 190
1988352S14166 1989 111 SP MM ESETA 1988-12-19 00:00:00 TS -18.1000 165.200 30 997 wellington main 256 208 ________O___O_ -1 -18.1000 165.200 30 997 -18.1000 165.200 TC 25 8 199
1988352S14166 1989 111 SP MM ESETA 1988-12-19 03:00:00 TS -18.4864 165.020 main 208 159 ________P___P_ -1 -18.4878 165.017 30 997 -18.4850 165.023 TC 25 9 205
1988352S14166 1989 111 SP MM ESETA 1988-12-19 06:00:00 TS -18.9000 164.800 30 997 wellington main 159 112 ________O___O_ -1 -18.9000 164.800 30 997 -18.9000 164.800 TC 25 9 206
1988352S14166 1989 111 SP MM ESETA 1988-12-19 09:00:00 TS -19.3150 164.593 main 112 64 ________P___P_ -1 -19.3150 164.593 30 997 -19.3150 164.593 TC 25 9 205
1988352S14166 1989 111 SP MM ESETA 1988-12-19 12:00:00 TS -19.7000 164.400 30 997 wellington main 64 24 ________O___O_ -1 -19.7000 164.400 30 997 -19.7000 164.400 TC 25 8 206
1988352S14166 1989 111 SP MM ESETA 1988-12-19 15:00:00 TS -20.0075 164.227 main 24 0 ________P___P_ -1 -20.0075 164.227 30 997 -20.0075 164.227 TC 25 7 205
1988352S14166 1989 111 SP MM ESETA 1988-12-19 18:00:00 TS -20.3000 164.100 30 997 wellington main 0 0 ________O___O_ -1 -20.3000 164.100 30 997 -20.3000 164.100 TC 25 7 196
1988352S14166 1989 111 SP MM ESETA 1988-12-19 21:00:00 TS -20.6575 164.027 main 30 30 ________P___P_ -1 -20.6575 164.027 30 997 -20.6575 164.027 TC 27 7 188
1988352S14166 1989 111 SP MM ESETA 1988-12-20 00:00:00 TS -21.0000 164.000 30 997 wellington main 47 47 ________O___O_ -1 -21.0000 164.000 30 997 -21.0000 164.000 TC 30 6 186
1988352S14166 1989 111 SP MM ESETA 1988-12-20 03:00:00 TS -21.2800 163.963 main 69 69 ________P___P_ -1 -21.2800 163.963 30 997 -21.2800 163.963 TC 30 5 178
1988352S14166 1989 111 SP MM ESETA 1988-12-20 06:00:00 TS -21.5000 164.000 30 997 wellington main 85 79 ________O___O_ -1 -21.5000 164.000 30 997 -21.5000 164.000 TC 30 4 155
1988352S14166 1989 111 SP MM ESETA 1988-12-20 09:00:00 TS -21.6800 164.162 main 79 68 ________P___P_ -1 -21.6800 164.162 30 997 -21.6800 164.162 TC 30 5 129
1988352S14166 1989 111 SP MM ESETA 1988-12-20 12:00:00 TS -21.8000 164.400 30 997 wellington main 68 60 ________O___O_ -1 -21.8000 164.400 30 997 -21.8000 164.400 TC 30 5 113
1988352S14166 1989 111 SP MM ESETA 1988-12-20 15:00:00 TS -21.8725 164.643 main 63 53 ________P___P_ -1 -21.8725 164.643 30 997 -21.8725 164.643 TC 30 5 102
1988352S14166 1989 111 SP MM ESETA 1988-12-20 18:00:00 TS -21.9000 164.900 30 997 wellington main 53 39 ________O___O_ -1 -21.9000 164.900 30 997 -21.9000 164.900 TC 30 5 100
1988352S14166 1989 111 SP MM ESETA 1988-12-20 21:00:00 TS -21.9525 165.150 main 49 24 ________P___P_ -1 -21.9525 165.150 30 997 -21.9525 165.150 TC 30 5 90
1988352S14166 1989 111 SP MM ESETA 1988-12-21 00:00:00 TS -21.9000 165.400 30 997 wellington main 24 0 ________O___O_ -1 -21.9000 165.400 30 997 -21.9000 165.400 TC 30 6 56
1988352S14166 1989 111 SP MM ESETA 1988-12-21 03:00:00 TS -21.6375 165.658 main 0 0 ________P___P_ -1 -21.6375 165.658 30 997 -21.6375 165.658 TC 30 8 38
1988352S14166 1989 111 SP MM ESETA 1988-12-21 06:00:00 TS -21.3000 165.900 30 997 wellington main 15 15 ________O___O_ -1 -21.3000 165.900 30 997 -21.3000 165.900 TC 30 7 35
1988352S14166 1989 111 SP MM ESETA 1988-12-21 09:00:00 TS -21.0798 166.077 main 44 44 ________P___P_ -1 -21.0798 166.077 30 997 -21.0798 166.077 TC 30 6 37
1988352S14166 1989 111 SP MM ESETA 1988-12-21 12:00:00 TS -20.8000 166.300 30 997 wellington main 80 80 ________O___O_ -1 -20.8000 166.300 30 997 -20.8000 166.300 TC 30 9 36
1988352S14166 1989 111 SP MM ESETA 1988-12-21 15:00:00 TS -20.3225 166.663 main 147 147 ________P___P_ -1 -20.3225 166.663 30 997 -20.3225 166.663 TC 30 13 37
1988352S14166 1989 111 SP MM ESETA 1988-12-21 18:00:00 TS -19.8000 167.100 30 997 wellington main 216 216 ________O___O_ -1 -19.8000 167.100 30 997 -19.8000 167.100 TC 30 13 40
1988352S14166 1989 111 SP MM ESETA 1988-12-21 21:00:00 TS -19.3399 167.535 main 286 268 ________P___P_ -1 -19.3399 167.535 30 997 -19.3399 167.535 TC 30 12 47
1988352S14166 1989 111 SP MM ESETA 1988-12-22 00:00:00 TS -19.0000 168.000 30 997 wellington main 269 254 ________O___O_ -1 -19.0000 168.000 30 997 -19.0000 168.000 TC 30 10 61
1988352S14166 1989 111 SP MM ESETA 1988-12-22 03:00:00 TS -18.8400 168.500 main 257 257 ________P___P_ -1 -18.8400 168.500 30 997 -18.8400 168.500 TC 30 10 78
1988352S14166 1989 111 SP MM ESETA 1988-12-22 06:00:00 TS -18.8000 169.000 30 997 wellington main 277 277 ________O___O_ -1 -18.8000 169.000 30 997 -18.8000 169.000 TC 30 9 86
1988352S14166 1989 111 SP MM ESETA 1988-12-22 09:00:00 TS -18.7773 169.457 main 305 305 ________P___P_ -1 -18.7773 169.457 30 997 -18.7773 169.457 TC 32 9 90
1988352S14166 1989 111 SP MM ESETA 1988-12-22 12:00:00 TS -18.8000 169.900 30 997 wellington main 331 331 ________O___O_ -1 -18.8000 169.900 30 997 -18.8000 169.900 TC 35 9 94
1988352S14166 1989 111 SP MM ESETA 1988-12-22 15:00:00 TS -18.8350 170.365 main 369 369 ________P___P_ -1 -18.8350 170.365 30 997 -18.8350 170.365 TC 37 9 97
1988352S14166 1989 111 SP MM ESETA 1988-12-22 18:00:00 TS -18.9000 170.800 30 997 wellington main 408 408 ________O___O_ -1 -18.9000 170.800 30 997 -18.9000 170.800 TC 40 8 101
1988352S14166 1989 111 SP MM ESETA 1988-12-22 21:00:00 TS -18.9774 171.173 main 449 449 ________P___P_ -1 -18.9774 171.173 32 996 -18.9774 171.173 TC 40 7 107
1988352S14166 1989 111 SP MM ESETA 1988-12-23 00:00:00 TS -19.1000 171.500 35 995 wellington main 481 481 ________O___O_ -1 -19.1000 171.500 35 995 -19.1000 171.500 TC 40 7 117
1988352S14166 1989 111 SP MM ESETA 1988-12-23 03:00:00 TS -19.2924 171.815 main 519 519 ________P___P_ -1 -19.2924 171.815 37 992 -19.2924 171.815 TC 42 7 125
1988352S14166 1989 111 SP MM ESETA 1988-12-23 06:00:00 TS -19.5000 172.100 40 990 wellington main 558 545 ________O___O_ -1 -19.5000 172.100 40 990 -19.5000 172.100 TC 45 6 126
1988352S14166 1989 111 SP MM ESETA 1988-12-23 09:00:00 TS -19.6574 172.358 main 539 524 ________P___P_ -1 -19.6574 172.358 40 990 -19.6574 172.358 TC 47 6 123
1988352S14166 1989 111 SP MM ESETA 1988-12-23 12:00:00 TS -19.8000 172.600 40 990 wellington main 524 509 ________O___O_ -1 -19.8000 172.600 40 990 -19.8000 172.600 TC 50 5 121
1988352S14166 1989 111 SP MM ESETA 1988-12-23 15:00:00 TS -19.9350 172.850 main 499 490 ________P___P_ -1 -19.9350 172.850 40 990 -19.9350 172.850 TC 52 6 123
1988352S14166 1989 111 SP MM ESETA 1988-12-23 18:00:00 TS -20.1000 173.100 40 990 wellington main 490 477 ________O___O_ -1 -20.1000 173.100 40 990 -20.1000 173.100 TC 55 6 130
1988352S14166 1989 111 SP MM ESETA 1988-12-23 21:00:00 TS -20.3274 173.343 main 483 472 ________P___P_ -1 -20.3274 173.343 42 988 -20.3274 173.343 TC 55 7 137
1988352S14166 1989 111 SP MM ESETA 1988-12-24 00:00:00 TS -20.6000 173.600 45 987 wellington main 476 466 ________O___O_ -1 -20.6000 173.600 45 987 -20.6000 173.600 TC 55 8 137
1988352S14166 1989 111 SP MM ESETA 1988-12-24 03:00:00 TS -20.8700 173.893 main 474 466 ________P___P_ -1 -20.8700 173.893 45 987 -20.8700 173.893 TC 55 8 137
1988352S14166 1989 111 SP MM ESETA 1988-12-24 06:00:00 TS -21.2000 174.200 45 987 wellington main 474 474 ________O___O_ -1 -21.2000 174.200 45 987 -21.2000 174.200 TC 55 10 142
1988352S14166 1989 111 SP MM ESETA 1988-12-24 09:00:00 TS -21.6276 174.530 main 488 488 ________P___P_ -1 -21.6276 174.530 47 986 -21.6276 174.530 TC 57 11 148
1988352S14166 1989 111 SP MM ESETA 1988-12-24 12:00:00 TS -22.1000 174.800 50 985 wellington main 517 517 ________O___O_ -1 -22.1000 174.800 50 985 -22.1000 174.800 TC 60 10 157
1988352S14166 1989 111 SP MM ESETA 1988-12-24 15:00:00 TS -22.5424 174.945 main 552 552 ________P___P_ -1 -22.5424 174.945 52 982 -22.5424 174.945 TC 60 9 168
1988352S14166 1989 111 SP MM ESETA 1988-12-24 18:00:00 TS -23.0000 175.000 55 980 wellington main 597 597 ________O___O_ -1 -23.0000 175.000 55 980 -23.0000 175.000 TC 60 10 175
1988352S14166 1989 111 SP MM ESETA 1988-12-24 21:00:00 TS -23.5150 175.030 main 649 649 ________P___P_ -1 -23.5150 175.030 52 982 -23.5150 175.030 TC 60 10 179
1988352S14166 1989 111 SP MM ESETA 1988-12-25 00:00:00 TS -24.0000 175.000 50 985 wellington main 701 701 ________O___O_ -1 -24.0000 175.000 50 985 -24.0000 175.000 TC 60 9 187
1988352S14166 1989 111 SP MM ESETA 1988-12-25 03:00:00 TS -24.3800 174.908 main 747 747 ________P___P_ -1 -24.3800 174.908 50 985 -24.3800 174.908 TC 60 7 195
1988352S14166 1989 111 SP MM ESETA 1988-12-25 06:00:00 TS -24.7000 174.800 50 985 wellington main 781 781 ________O___O_ -1 -24.7000 174.800 50 985 -24.7000 174.800 TC 60 7 192
1988352S14166 1989 111 SP MM ESETA 1988-12-25 09:00:00 TS -25.0150 174.757 main 813 813 ________P___P_ -1 -25.0150 174.757 50 985 -25.0150 174.757 TC 57 6 188
1988352S14166 1989 111 SP MM ESETA 1988-12-25 12:00:00 TS -25.3000 174.700 50 985 wellington main 848 846 ________O___O_ -1 -25.3000 174.700 50 985 -25.3000 174.700 TC 55 6 197
1988352S14166 1989 111 SP MM ESETA 1988-12-25 15:00:00 TS -25.5650 174.573 main 855 841 ________P___P_ -1 -25.5650 174.573 50 985 -25.5650 174.573 TC 55 6 209
1988352S14166 1989 111 SP MM ESETA 1988-12-25 18:00:00 TS -25.8000 174.400 50 985 wellington main 846 838 ________O___O_ -1 -25.8000 174.400 50 985 -25.8000 174.400 TC 55 5 216
1988352S14166 1989 111 SP MM ESETA 1988-12-25 21:00:00 TS -25.9924 174.230 main 838 832 ________P___P_ -1 -25.9924 174.230 50 985 -25.9924 174.230 TC 52 5 222
1988352S14166 1989 111 SP MM ESETA 1988-12-26 00:00:00 TS -26.2000 174.000 50 985 wellington main 832 818 ________O___O_ -1 -26.2000 174.000 50 985 -26.2000 174.000 TC 50 7 225
1988352S14166 1989 111 SP MM ESETA 1988-12-26 03:00:00 TS -26.4926 173.673 main 824 811 ________P___P_ -1 -26.4926 173.673 50 985 -26.4926 173.673 TC 50 9 226
1988352S14166 1989 111 SP MM ESETA 1988-12-26 06:00:00 TS -26.8000 173.300 50 985 wellington main 811 801 ________O___O_ -1 -26.8000 173.300 50 985 -26.8000 173.300 TC 50 8 230
1988352S14166 1989 111 SP MM ESETA 1988-12-26 09:00:00 TS -27.0349 172.950 main 794 793 ________P___P_ -1 -27.0349 172.950 50 985 -27.0349 172.950 TC 50 8 231
1988352S14166 1989 111 SP MM ESETA 1988-12-26 12:00:00 TS -27.3000 172.600 50 985 wellington main 793 770 ________O___O_ -1 -27.3000 172.600 50 985 -27.3000 172.600 TC 50 9 224
1988352S14166 1989 111 SP MM ESETA 1988-12-26 15:00:00 TS -27.6699 172.250 main 759 717 ________P___P_ -1 -27.6699 172.250 50 985 -27.6699 172.250 TC 47 10 218
1988352S14166 1989 111 SP MM ESETA 1988-12-26 18:00:00 TS -28.1000 171.900 50 985 wellington main 717 675 ________O___O_ -1 -28.1000 171.900 50 985 -28.1000 171.900 TC 45 11 217
1988352S14166 1989 111 SP MM ESETA 1988-12-26 21:00:00 TS -28.5351 171.513 main 677 627 ________P___P_ -1 -28.5351 171.513 50 985 -28.5351 171.513 TC 45 11 214
1988352S14166 1989 111 SP MM ESETA 1988-12-27 00:00:00 TS -29.0000 171.200 50 985 wellington main 627 575 ________O___O_ -1 -29.0000 171.200 50 985 -29.0000 171.200 TC 45 11 203
1988352S14166 1989 111 SP MM ESETA 1988-12-27 03:00:00 TS -29.5073 171.047 main 577 523 ________P___P_ -1 -29.5073 171.047 50 985 -29.5073 171.047 TC 42 10 190
1988352S14166 1989 111 SP MM ESETA 1988-12-27 06:00:00 TS -30.0000 171.000 50 985 wellington main 523 481 ________O___O_ -1 -30.0000 171.000 50 985 -30.0000 171.000 TC 40 9 183
1988352S14166 1989 111 SP MM ESETA 1988-12-27 09:00:00 TS -30.4000 170.992 main 481 438 ________P___P_ -1 -30.4000 170.992 50 985 -30.4000 170.992 TC 40 8 179
1988352S14166 1989 111 SP MM ESETA 1988-12-27 12:00:00 TS -30.8000 171.000 50 985 wellington main 438 397 ________O___O_ -1 -30.8000 171.000 50 985 -30.8000 171.000 TC 40 9 183
1988352S14166 1989 111 SP MM ESETA 1988-12-27 15:00:00 TS -31.2700 170.958 main 386 339 ________P___P_ -1 -31.2700 170.958 50 985 -31.2700 170.958 TC 37 10 185
1988352S14166 1989 111 SP MM ESETA 1988-12-27 18:00:00 TS -31.8000 170.900 50 985 wellington main 339 291 ________O___O_ -1 -31.8000 170.900 50 985 -31.8000 170.900 TC 35 11 185
1988352S14166 1989 111 SP MM ESETA 1988-12-27 21:00:00 TS -32.3325 170.857 main 291 235 ________P___P_ -1 -32.3325 170.857 50 985 -32.3325 170.857 TC 35 12 184
1988352S14166 1989 111 SP MM ESETA 1988-12-28 00:00:00 TS -33.0000 170.800 50 985 wellington main 235 186 ________O___O_ -1 -33.0000 170.800 50 985 -33.0000 170.800 TC 35 16 185
1988352S14166 1989 111 SP MM ESETA 1988-12-28 03:00:00 TS -33.9350 170.701 main 186 174 ________P___P_ -1 -33.9350 170.701 50 985 -33.9350 170.701 TC 32 19 185
1988352S14166 1989 111 SP MM ESETA 1988-12-28 06:00:00 TS -34.9000 170.600 50 985 wellington main 187 187 ________O___O_ -1 -34.9000 170.600 50 985 -34.9000 170.600 TC 30 17 184
1988352S14166 1989 111 SP MM ESETA 1988-12-28 09:00:00 TS -35.6674 170.537 main 232 232 ________P___P_ -1 -35.6674 170.537 50 985 -35.6674 170.537 TC 27 14 183
1988352S14166 1989 111 SP MM ESETA 1988-12-28 12:00:00 TS -36.3000 170.500 50 985 wellington main 267 ________O___O_ -1 -36.3000 170.500 50 985 -36.3000 170.500 TC 25 13 184

Digital Typhoon Data and Search

About IBTrACS Database

This database is a web-friendly format of International Best Track Archive for Climate Stewardship (IBTrACS), a global best track data archive curated by NOAA dating back to 1842.

Updated: 2021-10-08